Time;durP1;ratioP1;P1;durP2;ratioP2;P2;SDS_P1;SDS_P2;PMS_P1;PMS_P2;Temp;Humidity;BMP_temperature;BMP_pressure;BME280_temperature;BME280_humidity;BME280_pressure;Samples;Min_cycle;Max_cycle;Signal;HPM_P1;HPM_P2
2023/05/23 00:01:30;;;;;;;6.55;3.80;;;;;21.20;101756.00;;;;5088772;28;20187;-78
2023/05/23 00:03:57;;;;;;;5.28;4.35;;;;;21.20;101754.00;;;;5089734;28;20304;-78
2023/05/23 00:06:25;;;;;;;8.05;4.40;;;;;21.20;101753.00;;;;5086685;28;20281;-78
2023/05/23 00:08:52;;;;;;;6.75;4.97;;;;;21.20;101761.00;;;;5088556;28;20663;-78
2023/05/23 00:11:25;;;;;;;10.00;5.65;;;;;21.20;101754.00;;;;5088244;28;20570;-78
2023/05/23 00:13:53;;;;;;;5.25;4.13;;;;;21.10;101764.00;;;;5073703;28;20685;-79
2023/05/23 00:16:21;;;;;;;5.47;3.58;;;;;21.10;101763.00;;;;5068299;28;20198;-79
2023/05/23 00:18:49;;;;;;;7.70;4.57;;;;;21.10;101763.00;;;;5069876;28;20368;-78
2023/05/23 00:21:16;;;;;;;9.10;4.80;;;;;21.10;101758.00;;;;5088187;28;20564;-77
2023/05/23 00:23:44;;;;;;;7.43;4.13;;;;;21.00;101772.00;;;;5084670;28;20658;-78
2023/05/23 00:26:11;;;;;;;6.32;4.10;;;;;21.00;101771.00;;;;5079441;28;20820;-78
2023/05/23 00:28:40;;;;;;;8.75;4.47;;;;;21.00;101780.00;;;;5087055;28;20209;-78
2023/05/23 00:31:07;;;;;;;8.40;4.78;;;;;21.00;101773.00;;;;5087098;28;20213;-78
2023/05/23 00:33:35;;;;;;;6.32;4.18;;;;;20.90;101777.00;;;;5089151;28;20197;-78
2023/05/23 00:36:02;;;;;;;6.97;4.60;;;;;20.90;101771.00;;;;5088668;28;20198;-78
2023/05/23 00:38:30;;;;;;;8.00;4.35;;;;;20.80;101768.00;;;;5088804;28;20202;-78
2023/05/23 00:40:57;;;;;;;8.65;4.15;;;;;20.80;101780.00;;;;5089217;28;20660;-78
2023/05/23 00:43:24;;;;;;;5.97;3.60;;;;;20.80;101793.00;;;;5087771;28;20229;-78
2023/05/23 00:45:53;;;;;;;5.10;3.28;;;;;20.70;101786.00;;;;5089118;28;20221;-77
2023/05/23 00:48:21;;;;;;;6.72;3.47;;;;;20.70;101786.00;;;;5088766;28;20289;-78
2023/05/23 00:50:48;;;;;;;6.35;2.85;;;;;20.70;101796.00;;;;5088132;28;20199;-78
2023/05/23 00:53:15;;;;;;;6.18;3.55;;;;;20.70;101789.00;;;;5089573;28;20713;-79
2023/05/23 00:55:44;;;;;;;7.13;3.58;;;;;20.60;101794.00;;;;5089045;28;20241;-79
2023/05/23 00:58:12;;;;;;;8.15;4.32;;;;;20.60;101804.00;;;;5087536;28;20208;-77
2023/05/23 01:00:39;;;;;;;6.75;4.53;;;;;20.50;101788.00;;;;5086029;28;20285;-78
2023/05/23 01:03:08;;;;;;;6.88;3.65;;;;;20.50;101789.00;;;;5088674;28;20222;-78
2023/05/23 01:05:35;;;;;;;5.45;3.83;;;;;20.50;101796.00;;;;5087398;28;20217;-78
2023/05/23 01:08:02;;;;;;;7.43;4.47;;;;;20.50;101795.00;;;;5088087;28;20202;-78
2023/05/23 01:10:31;;;;;;;6.88;3.83;;;;;20.50;101790.00;;;;5086963;28;20222;-78
2023/05/23 01:13:21;;;;;;;6.85;4.03;;;;;20.40;101792.00;;;;5087348;28;20194;-78
2023/05/23 01:15:54;;;;;;;6.78;4.07;;;;;20.40;101795.00;;;;5087380;28;20211;-78
2023/05/23 01:18:29;;;;;;;9.20;4.68;;;;;20.40;101791.00;;;;5086147;28;20198;-79
2023/05/23 01:21:00;;;;;;;6.68;3.80;;;;;20.50;101790.00;;;;5088081;28;20208;-77
2023/05/23 01:24:04;;;;;;;5.88;3.42;;;;;20.30;101789.00;;;;5084593;28;20441;-79
2023/05/23 01:26:50;;;;;;;5.07;3.00;;;;;20.30;101787.00;;;;5075080;28;20659;-79
2023/05/23 01:29:24;;;;;;;6.00;2.92;;;;;20.40;101786.00;;;;5085630;28;20695;-78
2023/05/23 01:31:55;;;;;;;5.05;3.22;;;;;20.40;101789.00;;;;5085803;28;20232;-79
2023/05/23 01:34:23;;;;;;;5.30;3.22;;;;;20.40;101782.00;;;;5086416;28;20209;-79
2023/05/23 01:36:53;;;;;;;5.97;3.22;;;;;20.30;101784.00;;;;5086106;28;20194;-79
2023/05/23 01:39:21;;;;;;;5.20;2.65;;;;;20.30;101779.00;;;;5086948;28;20198;-79
2023/05/23 01:41:49;;;;;;;5.32;2.88;;;;;20.30;101784.00;;;;5078618;28;21021;-79
2023/05/23 01:44:18;;;;;;;4.15;2.78;;;;;20.30;101792.00;;;;5085305;28;20218;-78
2023/05/23 01:46:47;;;;;;;5.78;3.55;;;;;20.20;101790.00;;;;5089082;28;20229;-78
2023/05/23 01:49:16;;;;;;;4.65;2.97;;;;;20.20;101795.00;;;;5090210;28;20198;-79
2023/05/23 01:51:44;;;;;;;5.82;3.22;;;;;20.30;101790.00;;;;5092195;28;20198;-79
2023/05/23 01:54:13;;;;;;;5.07;3.03;;;;;20.20;101786.00;;;;5091355;28;20202;-78
2023/05/23 01:56:41;;;;;;;4.30;3.08;;;;;20.20;101795.00;;;;5090705;28;20736;-79
2023/05/23 01:59:09;;;;;;;5.20;3.28;;;;;20.20;101794.00;;;;5090131;28;20285;-79
2023/05/23 02:01:38;;;;;;;3.78;2.92;;;;;20.20;101790.00;;;;5091063;28;20202;-78
2023/05/23 02:04:05;;;;;;;4.38;2.78;;;;;20.20;101797.00;;;;5092276;28;20229;-79
2023/05/23 02:06:33;;;;;;;5.28;3.38;;;;;20.20;101801.00;;;;5091410;28;20666;-78
2023/05/23 02:09:00;;;;;;;4.68;3.25;;;;;20.20;101800.00;;;;5092036;28;20236;-78
2023/05/23 02:11:27;;;;;;;4.20;2.55;;;;;20.20;101801.00;;;;5090633;28;20224;-79
2023/05/23 02:13:54;;;;;;;4.00;2.67;;;;;20.20;101801.00;;;;5091591;28;20268;-78
2023/05/23 02:16:24;;;;;;;4.55;2.80;;;;;20.20;101803.00;;;;5091361;28;20289;-79
2023/05/23 02:18:55;;;;;;;4.70;2.83;;;;;20.20;101805.00;;;;5092158;28;20202;-79
2023/05/23 02:21:22;;;;;;;4.75;2.45;;;;;20.20;101808.00;;;;5088506;28;20206;-79
2023/05/23 02:23:50;;;;;;;5.28;2.97;;;;;20.20;101807.00;;;;5089392;28;20229;-79
2023/05/23 02:26:17;;;;;;;3.88;2.78;;;;;20.20;101809.00;;;;5091012;28;20224;-79
2023/05/23 02:28:45;;;;;;;3.90;2.13;;;;;20.20;101802.00;;;;5091285;28;20209;-78
2023/05/23 02:31:12;;;;;;;4.07;2.65;;;;;20.20;101806.00;;;;5089840;28;20194;-79
2023/05/23 02:33:39;;;;;;;3.42;2.53;;;;;20.20;101816.00;;;;5091442;28;20237;-79
2023/05/23 02:36:08;;;;;;;4.45;2.53;;;;;20.20;101819.00;;;;5090634;28;20571;-79
2023/05/23 02:38:35;;;;;;;3.97;2.53;;;;;20.30;101818.00;;;;5091403;28;20202;-79
2023/05/23 02:41:03;;;;;;;3.17;2.58;;;;;20.30;101821.00;;;;5090995;28;20217;-78
2023/05/23 02:43:31;;;;;;;3.35;2.40;;;;;20.30;101816.00;;;;5089626;28;20226;-78
2023/05/23 02:45:58;;;;;;;3.28;2.72;;;;;20.30;101822.00;;;;5091044;28;20759;-79
2023/05/23 02:48:25;;;;;;;7.38;3.17;;;;;20.30;101821.00;;;;5091195;28;20201;-78
2023/05/23 02:50:53;;;;;;;5.15;2.42;;;;;20.30;101824.00;;;;5091785;28;20191;-79
2023/05/23 02:53:22;;;;;;;4.85;3.03;;;;;20.30;101827.00;;;;5090629;28;20232;-79
2023/05/23 02:55:49;;;;;;;4.18;3.03;;;;;20.30;101829.00;;;;5090850;28;20210;-79
2023/05/23 02:58:16;;;;;;;5.55;3.08;;;;;20.40;101833.00;;;;5089910;28;20186;-78
2023/05/23 03:00:44;;;;;;;4.10;3.00;;;;;20.30;101830.00;;;;5085464;28;20199;-79
2023/05/23 03:03:11;;;;;;;4.00;2.40;;;;;20.40;101829.00;;;;5080947;28;20678;-79
2023/05/23 03:05:39;;;;;;;6.15;2.75;;;;;20.40;101830.00;;;;5070415;28;20571;-79
2023/05/23 03:08:07;;;;;;;4.88;3.30;;;;;20.40;101819.00;;;;5084706;28;20198;-78
2023/05/23 03:10:35;;;;;;;3.85;2.72;;;;;20.40;101830.00;;;;5090648;28;20660;-79
2023/05/23 03:13:03;;;;;;;6.72;3.10;;;;;20.40;101838.00;;;;5090533;28;20695;-79
2023/05/23 03:15:30;;;;;;;7.82;3.40;;;;;20.40;101830.00;;;;5090609;28;20193;-79
2023/05/23 03:17:57;;;;;;;4.68;3.40;;;;;20.40;101825.00;;;;5090577;28;20202;-78
2023/05/23 03:20:25;;;;;;;4.63;2.72;;;;;20.40;101822.00;;;;5089985;28;20194;-78
2023/05/23 03:22:52;;;;;;;7.45;3.33;;;;;20.40;101818.00;;;;5088912;28;20198;-79
2023/05/23 03:25:19;;;;;;;5.57;3.10;;;;;20.40;101833.00;;;;5087869;28;20240;-79
2023/05/23 03:27:48;;;;;;;5.57;3.70;;;;;20.40;101827.00;;;;5080992;28;20209;-79
2023/05/23 03:30:16;;;;;;;6.60;3.40;;;;;20.40;101834.00;;;;5088776;28;20578;-79
2023/05/23 03:32:43;;;;;;;6.68;3.15;;;;;20.40;101828.00;;;;5089849;28;20229;-79
2023/05/23 03:35:10;;;;;;;6.43;2.85;;;;;20.40;101830.00;;;;5087238;28;20201;-79
2023/05/23 03:37:38;;;;;;;6.80;3.47;;;;;20.40;101834.00;;;;5089709;28;20214;-79
2023/05/23 03:40:07;;;;;;;8.10;4.32;;;;;20.30;101833.00;;;;5090282;28;20190;-79
2023/05/23 03:42:34;;;;;;;6.15;4.15;;;;;20.30;101839.00;;;;5088882;28;20182;-78
2023/05/23 03:45:03;;;;;;;5.22;3.42;;;;;20.30;101840.00;;;;5090181;28;20234;-80
2023/05/23 03:47:30;;;;;;;8.45;3.83;;;;;20.30;101835.00;;;;5088754;28;20233;-79
2023/05/23 03:49:57;;;;;;;8.63;3.65;;;;;20.30;101846.00;;;;5089752;28;20693;-78
2023/05/23 03:52:25;;;;;;;11.70;4.68;;;;;20.30;101847.00;;;;5088893;28;20221;-78
2023/05/23 03:54:52;;;;;;;8.88;4.40;;;;;20.20;101848.00;;;;5090125;28;20213;-78
2023/05/23 03:57:20;;;;;;;9.65;3.90;;;;;20.10;101852.00;;;;5089591;28;20269;-78
2023/05/23 03:59:47;;;;;;;12.77;4.32;;;;;20.10;101849.00;;;;5089001;28;20202;-78
2023/05/23 04:02:15;;;;;;;9.18;3.70;;;;;20.10;101854.00;;;;5089204;28;20201;-79
2023/05/23 04:04:43;;;;;;;12.07;4.00;;;;;20.10;101860.00;;;;5088942;28;20233;-79
2023/05/23 04:07:10;;;;;;;9.35;4.45;;;;;20.10;101858.00;;;;5089752;28;20194;-79
2023/05/23 04:09:37;;;;;;;16.52;4.85;;;;;20.00;101862.00;;;;5089266;28;20213;-79
2023/05/23 04:12:07;;;;;;;5.88;3.55;;;;;20.10;101870.00;;;;5089035;28;20198;-79
2023/05/23 04:14:35;;;;;;;10.18;4.60;;;;;20.10;101875.00;;;;5089908;28;20198;-80
2023/05/23 04:17:02;;;;;;;10.00;4.45;;;;;20.00;101873.00;;;;5088434;28;20198;-79
2023/05/23 04:19:31;;;;;;;8.65;3.53;;;;;20.00;101883.00;;;;5087244;28;20202;-79
2023/05/23 04:21:58;;;;;;;9.50;3.78;;;;;19.90;101876.00;;;;5086865;28;20206;-78
2023/05/23 04:24:25;;;;;;;6.88;3.70;;;;;19.90;101886.00;;;;5085269;28;20213;-79
2023/05/23 04:26:55;;;;;;;9.45;3.33;;;;;19.90;101892.00;;;;5086223;28;20195;-79
2023/05/23 04:29:23;;;;;;;8.85;4.10;;;;;19.90;101892.00;;;;5088738;28;20229;-78
2023/05/23 04:31:51;;;;;;;9.18;3.13;;;;;19.80;101885.00;;;;5088816;28;20234;-79
2023/05/23 04:34:21;;;;;;;7.15;3.58;;;;;19.80;101890.00;;;;5084645;28;20194;-79
2023/05/23 04:36:49;;;;;;;6.65;3.38;;;;;19.80;101893.00;;;;5087604;28;20696;-79
2023/05/23 04:39:17;;;;;;;8.15;3.45;;;;;19.80;101897.00;;;;5087456;28;20221;-78
2023/05/23 04:41:44;;;;;;;6.65;3.70;;;;;19.80;101897.00;;;;5087349;28;20198;-79
2023/05/23 04:44:13;;;;;;;17.23;3.72;;;;;19.80;101901.00;;;;5087257;28;20221;-79
2023/05/23 04:46:41;;;;;;;9.60;3.80;;;;;19.80;101898.00;;;;5068002;28;20301;-78
2023/05/23 04:49:09;;;;;;;7.00;3.13;;;;;19.80;101904.00;;;;5071984;28;20725;-78
2023/05/23 04:51:37;;;;;;;7.78;2.88;;;;;19.80;101903.00;;;;5086390;28;20205;-78
2023/05/23 04:54:06;;;;;;;8.95;2.47;;;;;19.70;101907.00;;;;5088463;28;20210;-78
2023/05/23 04:56:33;;;;;;;5.20;2.25;;;;;19.70;101906.00;;;;5087425;28;20202;-79
2023/05/23 04:59:00;;;;;;;5.53;1.88;;;;;19.70;101913.00;;;;5088611;28;20201;-78
2023/05/23 05:01:28;;;;;;;8.43;2.50;;;;;19.60;101915.00;;;;5086269;28;20668;-78
2023/05/23 05:03:55;;;;;;;3.67;2.42;;;;;19.60;101915.00;;;;5080712;28;20214;-78
2023/05/23 05:06:23;;;;;;;7.35;2.15;;;;;19.60;101924.00;;;;5086498;28;20652;-78
2023/05/23 05:08:51;;;;;;;4.57;2.83;;;;;19.60;101935.00;;;;5086301;28;20186;-78
2023/05/23 05:11:20;;;;;;;3.30;2.20;;;;;19.60;101934.00;;;;5086759;28;20206;-78
2023/05/23 05:13:48;;;;;;;5.63;2.42;;;;;19.60;101940.00;;;;5087776;28;20213;-78
2023/05/23 05:16:15;;;;;;;6.53;2.38;;;;;19.60;101948.00;;;;5085657;28;20202;-79
2023/05/23 05:18:42;;;;;;;6.32;2.92;;;;;19.50;101949.00;;;;5078615;28;20672;-79
2023/05/23 05:21:10;;;;;;;5.28;2.22;;;;;19.50;101955.00;;;;5086547;28;20642;-79
2023/05/23 05:23:38;;;;;;;8.10;2.10;;;;;19.50;101969.00;;;;5085298;28;20202;-79
2023/05/23 05:26:07;;;;;;;5.22;2.33;;;;;19.40;101969.00;;;;5089403;28;20191;-78
2023/05/23 05:28:35;;;;;;;3.90;2.10;;;;;19.40;101968.00;;;;5086381;28;20198;-79
2023/05/23 05:31:03;;;;;;;5.50;2.50;;;;;19.40;101973.00;;;;5086420;28;20205;-78
2023/05/23 05:33:34;;;;;;;5.50;2.20;;;;;19.40;101968.00;;;;5092478;28;20683;-78
2023/05/23 05:36:02;;;;;;;5.90;2.33;;;;;19.40;101969.00;;;;5092444;28;20213;-79
2023/05/23 05:38:29;;;;;;;4.13;1.95;;;;;19.40;101968.00;;;;5092013;28;20239;-78
2023/05/23 05:40:57;;;;;;;6.03;2.13;;;;;19.30;101971.00;;;;5090306;28;20198;-78
2023/05/23 05:43:26;;;;;;;3.55;2.45;;;;;19.30;101978.00;;;;5090535;28;20195;-78
2023/05/23 05:45:55;;;;;;;5.13;1.95;;;;;19.20;101982.00;;;;5088105;28;20730;-78
2023/05/23 05:48:22;;;;;;;4.53;2.50;;;;;19.20;101983.00;;;;5088711;28;20691;-78
2023/05/23 05:50:49;;;;;;;18.52;2.85;;;;;19.30;101985.00;;;;5091490;28;20214;-77
2023/05/23 05:53:17;;;;;;;5.47;2.83;;;;;19.30;101988.00;;;;5092061;28;20198;-78
2023/05/23 05:55:44;;;;;;;6.03;1.70;;;;;19.30;101990.00;;;;5087234;28;20197;-79
2023/05/23 05:58:12;;;;;;;4.10;2.00;;;;;19.30;102007.00;;;;5093788;28;20210;-78
2023/05/23 06:00:42;;;;;;;6.18;2.47;;;;;19.30;101994.00;;;;5084148;28;20199;-78
2023/05/23 06:03:11;;;;;;;5.50;2.85;;;;;19.30;101996.00;;;;5078313;28;20293;-78
2023/05/23 06:05:39;;;;;;;5.32;3.03;;;;;19.30;101993.00;;;;5081659;28;20229;-78
2023/05/23 06:08:06;;;;;;;5.15;2.08;;;;;19.30;102005.00;;;;5091877;28;20236;-78
2023/05/23 06:10:34;;;;;;;6.28;3.08;;;;;19.30;102006.00;;;;5090559;28;20688;-78
2023/05/23 06:13:01;;;;;;;5.30;2.70;;;;;19.30;102016.00;;;;5091540;28;20235;-80
2023/05/23 06:15:29;;;;;;;8.15;2.83;;;;;19.30;102020.00;;;;5086113;28;20194;-80
2023/05/23 06:17:56;;;;;;;7.57;2.88;;;;;19.30;102015.00;;;;5090668;28;20202;-79
2023/05/23 06:20:25;;;;;;;6.65;2.90;;;;;19.30;102023.00;;;;5090490;28;20194;-78
2023/05/23 06:22:52;;;;;;;6.72;2.90;;;;;19.30;102016.00;;;;5090714;28;20208;-78
2023/05/23 06:25:19;;;;;;;8.00;2.58;;;;;19.30;102011.00;;;;5087748;28;20222;-78
2023/05/23 06:27:46;;;;;;;14.25;3.17;;;;;19.30;102018.00;;;;5090430;28;20366;-78
2023/05/23 06:30:15;;;;;;;5.32;2.70;;;;;19.30;102019.00;;;;5090810;28;20664;-78
2023/05/23 06:32:42;;;;;;;5.20;2.95;;;;;19.30;102014.00;;;;5089940;28;20237;-78
2023/05/23 06:35:10;;;;;;;5.50;3.13;;;;;19.30;102010.00;;;;5086784;28;20556;-78
2023/05/23 06:37:44;;;;;;;6.40;3.47;;;;;19.30;102004.00;;;;5086640;28;20206;-79
2023/05/23 06:40:12;;;;;;;7.57;3.38;;;;;19.30;102008.00;;;;5090946;28;20265;-79
2023/05/23 06:42:39;;;;;;;4.85;2.80;;;;;19.30;102012.00;;;;5088586;28;20664;-79
2023/05/23 06:45:08;;;;;;;4.28;2.70;;;;;19.30;102015.00;;;;5090889;28;20598;-77
2023/05/23 06:47:35;;;;;;;4.85;2.80;;;;;19.30;102017.00;;;;5091132;28;20225;-78
2023/05/23 06:50:03;;;;;;;6.03;3.15;;;;;19.30;102020.00;;;;5091356;28;20198;-77
2023/05/23 06:52:30;;;;;;;5.78;2.92;;;;;19.30;102019.00;;;;5090719;28;20202;-78
2023/05/23 06:54:59;;;;;;;6.18;2.83;;;;;19.30;102022.00;;;;5089661;28;20209;-78
2023/05/23 06:57:26;;;;;;;5.50;2.60;;;;;19.30;102021.00;;;;5090442;28;20198;-78
2023/05/23 06:59:53;;;;;;;6.25;2.60;;;;;19.30;102027.00;;;;5090598;28;20201;-79
2023/05/23 07:02:20;;;;;;;6.70;2.83;;;;;19.30;102028.00;;;;5088533;28;20197;-78
2023/05/23 07:04:48;;;;;;;6.35;2.30;;;;;19.30;102030.00;;;;5084006;28;20212;-78
2023/05/23 07:07:15;;;;;;;6.28;2.05;;;;;19.30;102037.00;;;;5089735;28;20202;-79
2023/05/23 07:09:42;;;;;;;5.63;1.90;;;;;19.30;102038.00;;;;5089449;28;21020;-78
2023/05/23 07:12:11;;;;;;;5.22;1.77;;;;;19.30;102038.00;;;;5089947;28;20209;-78
2023/05/23 07:14:39;;;;;;;3.22;1.67;;;;;19.20;102044.00;;;;5090713;28;20213;-79
2023/05/23 07:17:06;;;;;;;3.88;1.67;;;;;19.20;102046.00;;;;5091023;28;20190;-79
2023/05/23 07:19:33;;;;;;;2.47;1.50;;;;;19.20;102048.00;;;;5090353;28;20202;-78
2023/05/23 07:22:01;;;;;;;4.43;1.88;;;;;19.20;102054.00;;;;5090908;28;20209;-78
2023/05/23 07:24:28;;;;;;;2.80;1.73;;;;;19.20;102053.00;;;;5090194;28;20186;-78
2023/05/23 07:26:55;;;;;;;4.95;1.60;;;;;19.20;102059.00;;;;5089868;28;20202;-79
2023/05/23 07:29:24;;;;;;;3.22;1.45;;;;;19.20;102060.00;;;;5090104;28;20206;-79
2023/05/23 07:31:52;;;;;;;5.60;1.60;;;;;19.20;102063.00;;;;5090033;28;20317;-78
2023/05/23 07:34:19;;;;;;;6.65;1.58;;;;;19.20;102057.00;;;;5089851;28;20194;-78
2023/05/23 07:36:49;;;;;;;2.28;1.35;;;;;19.20;102060.00;;;;5088271;28;20248;-79
2023/05/23 07:39:20;;;;;;;3.22;1.00;;;;;19.20;102066.00;;;;5088554;28;20256;-78
2023/05/23 07:41:48;;;;;;;3.85;1.55;;;;;19.20;102063.00;;;;5087547;28;20202;-79
2023/05/23 07:44:16;;;;;;;7.53;1.38;;;;;19.20;102064.00;;;;5088908;28;20312;-79
2023/05/23 07:46:44;;;;;;;6.05;1.60;;;;;19.20;102067.00;;;;5089100;28;20242;-78
2023/05/23 07:49:12;;;;;;;6.78;1.77;;;;;19.20;102063.00;;;;5089308;28;20567;-79
2023/05/23 07:51:40;;;;;;;3.20;1.10;;;;;19.20;102069.00;;;;5089633;28;20208;-79
2023/05/23 07:54:08;;;;;;;4.70;1.40;;;;;19.20;102069.00;;;;5088072;28;20191;-79
2023/05/23 07:56:37;;;;;;;5.30;1.30;;;;;19.30;102071.00;;;;5088548;28;20198;-78
2023/05/23 07:59:04;;;;;;;3.85;1.42;;;;;19.30;102072.00;;;;5089094;28;20595;-79
2023/05/23 08:01:31;;;;;;;6.78;1.60;;;;;19.40;102077.00;;;;5082313;28;20205;-78
2023/05/23 08:04:02;;;;;;;5.15;1.48;;;;;19.40;102072.00;;;;5089184;28;20205;-78
2023/05/23 08:06:30;;;;;;;8.10;1.83;;;;;19.40;102070.00;;;;5088247;28;21007;-79
2023/05/23 08:08:57;;;;;;;4.55;1.90;;;;;19.50;102080.00;;;;5088608;28;20648;-78
2023/05/23 08:11:26;;;;;;;5.65;1.85;;;;;19.50;102082.00;;;;5088218;28;20202;-78
2023/05/23 08:13:53;;;;;;;5.90;1.98;;;;;19.60;102083.00;;;;5089499;28;20205;-79
2023/05/23 08:16:20;;;;;;;7.13;1.73;;;;;19.60;102084.00;;;;5088366;28;20205;-78
2023/05/23 08:18:48;;;;;;;5.38;1.77;;;;;19.60;102083.00;;;;5085490;28;20195;-79
2023/05/23 08:21:16;;;;;;;3.25;1.00;;;;;19.60;102087.00;;;;5068280;28;20195;-78
2023/05/23 08:23:44;;;;;;;4.20;1.20;;;;;19.70;102089.00;;;;5069067;28;20195;-78
2023/05/23 08:26:11;;;;;;;8.30;2.22;;;;;19.70;102081.00;;;;5088954;28;20226;-79
2023/05/23 08:28:38;;;;;;;10.43;1.92;;;;;19.70;102093.00;;;;5088273;28;20205;-79
2023/05/23 08:31:06;;;;;;;4.13;1.17;;;;;19.70;102088.00;;;;5089192;28;20206;-79
2023/05/23 08:33:33;;;;;;;10.95;1.58;;;;;19.70;102099.00;;;;5088974;28;20610;-79
2023/05/23 08:36:00;;;;;;;3.45;1.08;;;;;19.70;102108.00;;;;5088715;28;20679;-79
2023/05/23 08:38:29;;;;;;;6.88;1.52;;;;;19.70;102098.00;;;;5089213;28;20701;-79
2023/05/23 08:41:00;;;;;;;4.57;1.13;;;;;19.80;102106.00;;;;5089541;28;20309;-79
2023/05/23 08:43:28;;;;;;;4.80;1.90;;;;;19.80;102106.00;;;;5089395;28;20205;-79
2023/05/23 08:45:56;;;;;;;7.75;1.65;;;;;19.80;102118.00;;;;5088102;28;20225;-79
2023/05/23 08:48:24;;;;;;;7.13;1.63;;;;;19.80;102116.00;;;;5088499;28;20247;-79
2023/05/23 08:50:52;;;;;;;5.60;1.75;;;;;19.80;102116.00;;;;5088850;28;20213;-78
2023/05/23 08:53:22;;;;;;;4.43;1.55;;;;;19.80;102114.00;;;;5089409;28;20590;-79
2023/05/23 08:55:53;;;;;;;5.40;1.67;;;;;19.90;102116.00;;;;5088843;28;20198;-78
2023/05/23 08:58:21;;;;;;;4.50;1.10;;;;;19.90;102118.00;;;;5088650;28;20194;-78
2023/05/23 09:00:49;;;;;;;7.13;1.23;;;;;20.00;102112.00;;;;5080570;28;20663;-78
2023/05/23 09:03:17;;;;;;;4.28;1.83;;;;;20.10;102120.00;;;;5087376;28;21064;-77
2023/05/23 09:05:45;;;;;;;9.25;1.95;;;;;20.10;102130.00;;;;5088796;28;20229;-78
2023/05/23 09:08:14;;;;;;;4.07;1.45;;;;;20.20;102132.00;;;;5088403;28;20202;-78
2023/05/23 09:10:41;;;;;;;4.65;1.70;;;;;20.30;102138.00;;;;5088516;28;20537;-78
2023/05/23 09:13:10;;;;;;;6.35;1.50;;;;;20.40;102121.00;;;;5088268;28;20212;-77
2023/05/23 09:15:37;;;;;;;7.32;1.77;;;;;20.50;102134.00;;;;5088399;28;20202;-78
2023/05/23 09:18:05;;;;;;;3.95;1.80;;;;;20.60;102142.00;;;;5088227;28;20676;-78
2023/05/23 09:20:32;;;;;;;5.45;1.58;;;;;20.70;102138.00;;;;5088037;28;20194;-78
2023/05/23 09:23:00;;;;;;;5.70;1.77;;;;;20.80;102131.00;;;;5088490;28;20794;-78
2023/05/23 09:25:27;;;;;;;3.90;1.50;;;;;20.90;102134.00;;;;5088011;28;20226;-78
2023/05/23 09:27:58;;;;;;;7.32;2.10;;;;;20.90;102138.00;;;;5087900;28;20202;-78
2023/05/23 09:30:27;;;;;;;10.60;1.55;;;;;20.90;102142.00;;;;5088344;28;20377;-77
2023/05/23 09:32:59;;;;;;;5.10;1.40;;;;;21.00;102142.00;;;;5086711;28;20226;-78
2023/05/23 09:35:29;;;;;;;7.22;1.90;;;;;21.10;102138.00;;;;5085991;28;20267;-78
2023/05/23 09:37:59;;;;;;;4.72;1.45;;;;;21.10;102140.00;;;;5088306;28;20739;-78
2023/05/23 09:40:31;;;;;;;5.68;1.70;;;;;21.10;102150.00;;;;5087965;28;20186;-78
2023/05/23 09:43:03;;;;;;;5.00;1.83;;;;;21.10;102138.00;;;;5087432;28;20277;-78
2023/05/23 09:45:33;;;;;;;6.43;1.75;;;;;21.30;102144.00;;;;5087172;28;20605;-78
2023/05/23 09:48:01;;;;;;;3.90;1.40;;;;;21.40;102149.00;;;;5088335;28;20722;-78
2023/05/23 09:50:32;;;;;;;12.20;1.40;;;;;21.60;102148.00;;;;5087689;28;20214;-78
2023/05/23 09:53:00;;;;;;;3.40;1.63;;;;;21.70;102146.00;;;;5088290;28;20220;-79
2023/05/23 09:55:28;;;;;;;7.00;1.75;;;;;21.70;102142.00;;;;5088478;28;20303;-78
2023/05/23 09:57:58;;;;;;;5.80;1.88;;;;;21.70;102145.00;;;;5087673;28;20695;-78
2023/05/23 10:00:27;;;;;;;3.47;1.50;;;;;21.70;102158.00;;;;5087668;28;20194;-78
2023/05/23 10:03:11;;;;;;;4.95;1.42;;;;;21.60;102159.00;;;;5088116;28;20212;-77
2023/05/23 10:05:43;;;;;;;5.55;1.42;;;;;21.70;102172.00;;;;5088308;28;20222;-79
2023/05/23 10:08:14;;;;;;;5.97;1.75;;;;;21.70;102163.00;;;;5090934;28;20198;-78
2023/05/23 10:11:32;;;;;;;7.55;1.42;;;;;21.60;102176.00;;;;5091506;28;20198;-79
2023/05/23 10:14:02;;;;;;;4.20;1.88;;;;;21.60;102159.00;;;;5050020;28;20202;-78
2023/05/23 10:16:37;;;;;;;5.85;1.38;;;;;21.60;102161.00;;;;5090307;28;20194;-79
2023/05/23 10:19:12;;;;;;;2.40;1.30;;;;;21.70;102163.00;;;;5086196;28;20539;-78
2023/05/23 10:21:49;;;;;;;4.95;1.45;;;;;21.70;102168.00;;;;5071445;28;20194;-79
2023/05/23 10:24:17;;;;;;;7.57;1.80;;;;;21.80;102179.00;;;;5074418;28;20209;-77
2023/05/23 10:26:46;;;;;;;4.78;1.20;;;;;21.80;102185.00;;;;5091131;28;20226;-77
2023/05/23 10:29:13;;;;;;;5.72;1.17;;;;;21.80;102188.00;;;;5091235;28;20210;-78
2023/05/23 10:31:41;;;;;;;3.92;1.30;;;;;21.90;102191.00;;;;5091007;28;20234;-78
2023/05/23 10:34:18;;;;;;;5.60;1.67;;;;;21.80;102185.00;;;;5090870;28;20209;-78
2023/05/23 10:36:55;;;;;;;7.10;1.42;;;;;21.80;102180.00;;;;5090181;28;20698;-77
2023/05/23 10:39:33;;;;;;;4.82;1.60;;;;;21.90;102174.00;;;;5090704;28;20682;-78
2023/05/23 10:42:06;;;;;;;6.88;1.45;;;;;21.90;102185.00;;;;5070923;28;20207;-79
2023/05/23 10:44:33;;;;;;;3.17;1.20;;;;;22.00;102189.00;;;;5070898;28;20787;-79
2023/05/23 10:47:03;;;;;;;4.68;1.20;;;;;22.00;102200.00;;;;5070339;28;20576;-78
2023/05/23 10:49:41;;;;;;;4.50;1.67;;;;;21.90;102192.00;;;;5075284;28;20198;-78
2023/05/23 10:52:11;;;;;;;3.95;1.30;;;;;22.00;102202.00;;;;5091080;28;20214;-78
2023/05/23 10:54:42;;;;;;;7.22;1.35;;;;;21.90;102193.00;;;;5090639;28;20198;-77
2023/05/23 10:57:11;;;;;;;3.13;1.02;;;;;21.90;102198.00;;;;5089711;28;20205;-78
2023/05/23 10:59:39;;;;;;;4.97;1.52;;;;;21.90;102191.00;;;;5090665;28;20252;-78
2023/05/23 11:02:12;;;;;;;4.40;1.17;;;;;21.90;102181.00;;;;5090188;28;20204;-78
2023/05/23 11:04:41;;;;;;;7.05;1.20;;;;;21.90;102198.00;;;;5090602;28;20254;-79
2023/05/23 11:07:30;;;;;;;4.75;1.48;;;;;21.80;102193.00;;;;5089915;28;20230;-78
2023/05/23 11:10:05;;;;;;;3.58;1.08;;;;;21.80;102188.00;;;;5090392;28;20251;-78
2023/05/23 11:12:39;;;;;;;6.18;1.48;;;;;21.90;102191.00;;;;5089627;28;20193;-78
2023/05/23 11:15:22;;;;;;;2.05;0.93;;;;;21.80;102195.00;;;;5089647;28;20198;-79
2023/05/23 11:17:52;;;;;;;3.13;1.10;;;;;22.00;102181.00;;;;5087861;28;20247;-79
2023/05/23 11:20:26;;;;;;;4.25;1.20;;;;;22.00;102177.00;;;;5073890;28;20195;-77
2023/05/23 11:23:01;;;;;;;7.80;1.55;;;;;22.00;102195.00;;;;5070934;28;20242;-78
2023/05/23 11:25:42;;;;;;;5.28;1.40;;;;;22.00;102183.00;;;;5089522;28;20381;-78
2023/05/23 11:28:09;;;;;;;6.18;1.27;;;;;22.00;102187.00;;;;5089894;28;20251;-78
2023/05/23 11:30:37;;;;;;;5.10;1.50;;;;;22.00;102195.00;;;;5090245;28;20202;-78
2023/05/23 11:33:12;;;;;;;3.17;0.75;;;;;22.00;102188.00;;;;5090420;28;20618;-77
2023/05/23 11:35:41;;;;;;;3.33;1.35;;;;;22.00;102188.00;;;;5090529;28;20201;-77
2023/05/23 11:38:08;;;;;;;2.80;1.15;;;;;22.00;102194.00;;;;5089673;28;20217;-78
2023/05/23 11:40:38;;;;;;;3.08;1.23;;;;;22.00;102191.00;;;;5090096;28;20263;-78
2023/05/23 11:43:07;;;;;;;5.82;1.10;;;;;22.00;102187.00;;;;5089981;28;20210;-78
2023/05/23 11:45:36;;;;;;;2.95;1.02;;;;;22.00;102185.00;;;;5090063;28;20206;-78
2023/05/23 11:48:10;;;;;;;4.45;1.13;;;;;22.00;102193.00;;;;5089458;28;20222;-78
2023/05/23 11:50:46;;;;;;;6.43;1.20;;;;;22.00;102196.00;;;;5089804;28;20204;-78
2023/05/23 11:53:16;;;;;;;3.63;1.50;;;;;22.10;102196.00;;;;5089669;28;20198;-78
2023/05/23 11:55:51;;;;;;;5.00;1.02;;;;;22.10;102194.00;;;;5088365;28;20660;-78
2023/05/23 11:58:19;;;;;;;2.78;1.20;;;;;22.20;102188.00;;;;5089452;28;20644;-78
2023/05/23 12:00:47;;;;;;;2.53;1.00;;;;;22.30;102201.00;;;;5089293;28;20198;-78
2023/05/23 12:03:14;;;;;;;4.63;1.55;;;;;22.40;102208.00;;;;5088955;28;20785;-78
2023/05/23 12:05:45;;;;;;;3.10;1.10;;;;;22.40;102218.00;;;;5089375;28;20271;-79
2023/05/23 12:08:14;;;;;;;2.63;1.00;;;;;22.40;102207.00;;;;5089081;28;20229;-78
2023/05/23 12:10:51;;;;;;;2.38;1.00;;;;;22.40;102203.00;;;;5089301;28;20190;-78
2023/05/23 12:13:18;;;;;;;3.28;1.02;;;;;22.50;102206.00;;;;5089785;28;20186;-78
2023/05/23 12:15:46;;;;;;;2.00;0.93;;;;;22.50;102218.00;;;;5089185;28;20213;-78
2023/05/23 12:18:14;;;;;;;3.28;0.80;;;;;22.40;102217.00;;;;5089089;28;20202;-78